sensor_id;sensor_type;location;lat;lon;timestamp;P1;durP1;ratioP1;P2;durP2;ratioP2
20589;SDS011;10453;50.810;12.540;2023-12-20T00:02:08;5.57;;;3.72;;
20589;SDS011;10453;50.810;12.540;2023-12-20T00:06:26;3.83;;;3.17;;
20589;SDS011;10453;50.810;12.540;2023-12-20T00:10:43;4.80;;;3.50;;
20589;SDS011;10453;50.810;12.540;2023-12-20T00:15:01;6.25;;;4.10;;
20589;SDS011;10453;50.810;12.540;2023-12-20T00:19:19;5.68;;;3.72;;
20589;SDS011;10453;50.810;12.540;2023-12-20T00:23:37;5.10;;;3.25;;
20589;SDS011;10453;50.810;12.540;2023-12-20T00:27:54;4.85;;;2.85;;
20589;SDS011;10453;50.810;12.540;2023-12-20T00:32:11;6.22;;;3.45;;
20589;SDS011;10453;50.810;12.540;2023-12-20T00:36:28;6.80;;;3.90;;
20589;SDS011;10453;50.810;12.540;2023-12-20T00:40:45;3.42;;;2.83;;
20589;SDS011;10453;50.810;12.540;2023-12-20T00:45:03;3.65;;;2.30;;
20589;SDS011;10453;50.810;12.540;2023-12-20T00:53:38;2.55;;;2.08;;
20589;SDS011;10453;50.810;12.540;2023-12-20T00:57:55;3.22;;;1.65;;
20589;SDS011;10453;50.810;12.540;2023-12-20T01:02:13;2.28;;;1.75;;
20589;SDS011;10453;50.810;12.540;2023-12-20T01:06:30;2.60;;;1.90;;
20589;SDS011;10453;50.810;12.540;2023-12-20T01:10:48;2.00;;;1.60;;
20589;SDS011;10453;50.810;12.540;2023-12-20T01:15:05;3.13;;;1.70;;
20589;SDS011;10453;50.810;12.540;2023-12-20T01:19:22;1.80;;;1.45;;
20589;SDS011;10453;50.810;12.540;2023-12-20T01:23:41;1.55;;;1.20;;
20589;SDS011;10453;50.810;12.540;2023-12-20T01:27:58;2.50;;;1.50;;
20589;SDS011;10453;50.810;12.540;2023-12-20T01:32:16;1.70;;;1.37;;
20589;SDS011;10453;50.810;12.540;2023-12-20T01:36:33;1.90;;;1.40;;
20589;SDS011;10453;50.810;12.540;2023-12-20T01:40:50;1.63;;;1.38;;
20589;SDS011;10453;50.810;12.540;2023-12-20T01:45:08;1.67;;;1.10;;
20589;SDS011;10453;50.810;12.540;2023-12-20T01:49:26;1.07;;;0.97;;
20589;SDS011;10453;50.810;12.540;2023-12-20T01:53:43;2.83;;;1.20;;
20589;SDS011;10453;50.810;12.540;2023-12-20T01:58:01;1.65;;;1.20;;
20589;SDS011;10453;50.810;12.540;2023-12-20T02:12:52;1.00;;;0.90;;
20589;SDS011;10453;50.810;12.540;2023-12-20T02:17:20;1.23;;;1.00;;
20589;SDS011;10453;50.810;12.540;2023-12-20T02:21:41;0.77;;;0.70;;
20589;SDS011;10453;50.810;12.540;2023-12-20T02:26:02;0.98;;;0.60;;
20589;SDS011;10453;50.810;12.540;2023-12-20T02:30:27;0.60;;;0.60;;
20589;SDS011;10453;50.810;12.540;2023-12-20T02:34:49;0.65;;;0.63;;
20589;SDS011;10453;50.810;12.540;2023-12-20T02:39:12;0.50;;;0.50;;
20589;SDS011;10453;50.810;12.540;2023-12-20T02:43:32;0.50;;;0.47;;
20589;SDS011;10453;50.810;12.540;2023-12-20T02:48:01;1.02;;;0.60;;
20589;SDS011;10453;50.810;12.540;2023-12-20T02:52:34;0.98;;;0.40;;
20589;SDS011;10453;50.810;12.540;2023-12-20T02:56:54;1.02;;;0.60;;
20589;SDS011;10453;50.810;12.540;2023-12-20T03:01:17;0.35;;;0.35;;
20589;SDS011;10453;50.810;12.540;2023-12-20T03:05:38;0.50;;;0.40;;
20589;SDS011;10453;50.810;12.540;2023-12-20T03:09:57;0.40;;;0.40;;
20589;SDS011;10453;50.810;12.540;2023-12-20T03:14:36;0.65;;;0.50;;
20589;SDS011;10453;50.810;12.540;2023-12-20T03:18:57;0.85;;;0.50;;
20589;SDS011;10453;50.810;12.540;2023-12-20T03:23:16;0.50;;;0.50;;
20589;SDS011;10453;50.810;12.540;2023-12-20T03:27:39;0.40;;;0.40;;
20589;SDS011;10453;50.810;12.540;2023-12-20T03:32:06;1.90;;;0.40;;
20589;SDS011;10453;50.810;12.540;2023-12-20T03:36:34;1.90;;;0.57;;
20589;SDS011;10453;50.810;12.540;2023-12-20T03:40:56;0.45;;;0.35;;
20589;SDS011;10453;50.810;12.540;2023-12-20T03:45:22;0.32;;;0.32;;
20589;SDS011;10453;50.810;12.540;2023-12-20T03:49:42;0.40;;;0.40;;
20589;SDS011;10453;50.810;12.540;2023-12-20T03:54:16;0.40;;;0.40;;
20589;SDS011;10453;50.810;12.540;2023-12-20T03:58:36;0.43;;;0.40;;
20589;SDS011;10453;50.810;12.540;2023-12-20T04:02:57;0.77;;;0.25;;
20589;SDS011;10453;50.810;12.540;2023-12-20T04:07:19;0.43;;;0.30;;
20589;SDS011;10453;50.810;12.540;2023-12-20T04:11:39;0.50;;;0.50;;
20589;SDS011;10453;50.810;12.540;2023-12-20T04:16:04;0.30;;;0.30;;
20589;SDS011;10453;50.810;12.540;2023-12-20T04:20:34;1.85;;;0.30;;
20589;SDS011;10453;50.810;12.540;2023-12-20T04:25:03;0.55;;;0.38;;
20589;SDS011;10453;50.810;12.540;2023-12-20T04:29:28;0.20;;;0.20;;
20589;SDS011;10453;50.810;12.540;2023-12-20T04:33:46;2.80;;;1.55;;
20589;SDS011;10453;50.810;12.540;2023-12-20T04:38:18;0.73;;;0.43;;
20589;SDS011;10453;50.810;12.540;2023-12-20T04:42:47;1.80;;;0.50;;
20589;SDS011;10453;50.810;12.540;2023-12-20T04:47:09;0.40;;;0.40;;
20589;SDS011;10453;50.810;12.540;2023-12-20T04:51:32;0.90;;;0.40;;
20589;SDS011;10453;50.810;12.540;2023-12-20T04:55:59;1.00;;;0.30;;
20589;SDS011;10453;50.810;12.540;2023-12-20T05:00:20;0.25;;;0.25;;
20589;SDS011;10453;50.810;12.540;2023-12-20T05:04:45;1.92;;;0.40;;
20589;SDS011;10453;50.810;12.540;2023-12-20T05:09:18;2.85;;;0.40;;
20589;SDS011;10453;50.810;12.540;2023-12-20T05:13:41;0.73;;;0.50;;
20589;SDS011;10453;50.810;12.540;2023-12-20T05:18:13;1.58;;;0.40;;
20589;SDS011;10453;50.810;12.540;2023-12-20T05:27:08;0.20;;;0.20;;
20589;SDS011;10453;50.810;12.540;2023-12-20T05:31:30;0.73;;;0.45;;
20589;SDS011;10453;50.810;12.540;2023-12-20T05:36:16;0.52;;;0.47;;
20589;SDS011;10453;50.810;12.540;2023-12-20T05:40:43;0.50;;;0.50;;
20589;SDS011;10453;50.810;12.540;2023-12-20T05:45:02;1.58;;;0.73;;
20589;SDS011;10453;50.810;12.540;2023-12-20T05:49:26;1.08;;;0.98;;
20589;SDS011;10453;50.810;12.540;2023-12-20T05:53:48;0.50;;;0.50;;
20589;SDS011;10453;50.810;12.540;2023-12-20T05:58:33;1.65;;;0.70;;
20589;SDS011;10453;50.810;12.540;2023-12-20T06:02:55;2.03;;;0.90;;
20589;SDS011;10453;50.810;12.540;2023-12-20T06:07:19;2.80;;;1.00;;
20589;SDS011;10453;50.810;12.540;2023-12-20T06:11:42;1.88;;;1.10;;
20589;SDS011;10453;50.810;12.540;2023-12-20T06:16:04;1.80;;;1.25;;
20589;SDS011;10453;50.810;12.540;2023-12-20T06:20:27;2.45;;;1.45;;
20589;SDS011;10453;50.810;12.540;2023-12-20T06:24:45;1.73;;;1.27;;
20589;SDS011;10453;50.810;12.540;2023-12-20T06:29:15;2.13;;;1.30;;
20589;SDS011;10453;50.810;12.540;2023-12-20T06:33:43;1.95;;;1.10;;
20589;SDS011;10453;50.810;12.540;2023-12-20T06:38:14;5.28;;;1.63;;
20589;SDS011;10453;50.810;12.540;2023-12-20T06:42:37;1.33;;;1.23;;
20589;SDS011;10453;50.810;12.540;2023-12-20T06:47:14;4.55;;;3.75;;
20589;SDS011;10453;50.810;12.540;2023-12-20T06:51:35;2.42;;;1.90;;
20589;SDS011;10453;50.810;12.540;2023-12-20T06:55:57;7.40;;;6.70;;
20589;SDS011;10453;50.810;12.540;2023-12-20T07:00:18;9.00;;;8.13;;
20589;SDS011;10453;50.810;12.540;2023-12-20T07:04:40;3.03;;;2.55;;
20589;SDS011;10453;50.810;12.540;2023-12-20T07:08:59;4.28;;;1.77;;
20589;SDS011;10453;50.810;12.540;2023-12-20T07:13:17;4.83;;;1.93;;
20589;SDS011;10453;50.810;12.540;2023-12-20T07:17:38;4.68;;;4.28;;
20589;SDS011;10453;50.810;12.540;2023-12-20T07:22:01;4.13;;;1.95;;
20589;SDS011;10453;50.810;12.540;2023-12-20T07:26:28;2.92;;;2.20;;
20589;SDS011;10453;50.810;12.540;2023-12-20T07:30:48;4.20;;;2.60;;
20589;SDS011;10453;50.810;12.540;2023-12-20T07:35:18;5.95;;;4.07;;
20589;SDS011;10453;50.810;12.540;2023-12-20T07:39:39;4.07;;;3.13;;
20589;SDS011;10453;50.810;12.540;2023-12-20T07:44:05;4.60;;;2.90;;
20589;SDS011;10453;50.810;12.540;2023-12-20T07:48:24;5.18;;;3.10;;
20589;SDS011;10453;50.810;12.540;2023-12-20T07:52:45;2.83;;;2.50;;
20589;SDS011;10453;50.810;12.540;2023-12-20T07:57:06;3.92;;;2.83;;
20589;SDS011;10453;50.810;12.540;2023-12-20T08:01:28;4.55;;;3.38;;
20589;SDS011;10453;50.810;12.540;2023-12-20T08:05:55;4.80;;;3.15;;
20589;SDS011;10453;50.810;12.540;2023-12-20T08:10:18;6.60;;;4.05;;
20589;SDS011;10453;50.810;12.540;2023-12-20T08:14:38;5.18;;;2.88;;
20589;SDS011;10453;50.810;12.540;2023-12-20T08:18:58;3.95;;;2.90;;
20589;SDS011;10453;50.810;12.540;2023-12-20T08:23:19;4.40;;;2.40;;
20589;SDS011;10453;50.810;12.540;2023-12-20T08:27:43;2.53;;;1.95;;
20589;SDS011;10453;50.810;12.540;2023-12-20T08:32:04;3.60;;;1.98;;
20589;SDS011;10453;50.810;12.540;2023-12-20T08:36:24;3.85;;;1.45;;
20589;SDS011;10453;50.810;12.540;2023-12-20T08:40:48;2.92;;;1.67;;
20589;SDS011;10453;50.810;12.540;2023-12-20T08:45:09;6.43;;;3.15;;
20589;SDS011;10453;50.810;12.540;2023-12-20T08:49:27;2.97;;;2.20;;
20589;SDS011;10453;50.810;12.540;2023-12-20T08:53:45;2.72;;;1.90;;
20589;SDS011;10453;50.810;12.540;2023-12-20T08:58:10;4.28;;;1.83;;
20589;SDS011;10453;50.810;12.540;2023-12-20T09:02:35;8.85;;;5.32;;
20589;SDS011;10453;50.810;12.540;2023-12-20T09:07:26;7.28;;;4.10;;
20589;SDS011;10453;50.810;12.540;2023-12-20T09:11:49;10.07;;;9.10;;
20589;SDS011;10453;50.810;12.540;2023-12-20T09:16:13;7.43;;;6.53;;
20589;SDS011;10453;50.810;12.540;2023-12-20T09:20:35;7.90;;;4.35;;
20589;SDS011;10453;50.810;12.540;2023-12-20T09:24:55;6.00;;;2.67;;
20589;SDS011;10453;50.810;12.540;2023-12-20T09:29:14;4.75;;;3.05;;
20589;SDS011;10453;50.810;12.540;2023-12-20T09:33:39;8.13;;;5.03;;
20589;SDS011;10453;50.810;12.540;2023-12-20T09:38:01;5.97;;;3.08;;
20589;SDS011;10453;50.810;12.540;2023-12-20T09:42:43;5.78;;;3.35;;
20589;SDS011;10453;50.810;12.540;2023-12-20T09:47:13;4.57;;;2.95;;
20589;SDS011;10453;50.810;12.540;2023-12-20T09:51:54;5.22;;;3.20;;
20589;SDS011;10453;50.810;12.540;2023-12-20T09:56:21;4.57;;;2.90;;
20589;SDS011;10453;50.810;12.540;2023-12-20T10:00:42;4.88;;;2.70;;
20589;SDS011;10453;50.810;12.540;2023-12-20T10:05:09;4.60;;;2.63;;
20589;SDS011;10453;50.810;12.540;2023-12-20T10:09:46;8.48;;;2.85;;
20589;SDS011;10453;50.810;12.540;2023-12-20T10:14:10;3.90;;;2.50;;
20589;SDS011;10453;50.810;12.540;2023-12-20T10:18:45;4.97;;;2.25;;
20589;SDS011;10453;50.810;12.540;2023-12-20T10:23:22;13.05;;;5.80;;
20589;SDS011;10453;50.810;12.540;2023-12-20T10:27:44;6.68;;;2.97;;
20589;SDS011;10453;50.810;12.540;2023-12-20T10:32:21;7.32;;;4.20;;
20589;SDS011;10453;50.810;12.540;2023-12-20T10:36:43;7.25;;;4.30;;
20589;SDS011;10453;50.810;12.540;2023-12-20T10:41:07;7.10;;;5.32;;
20589;SDS011;10453;50.810;12.540;2023-12-20T10:45:35;4.88;;;3.47;;
20589;SDS011;10453;50.810;12.540;2023-12-20T10:49:59;9.15;;;6.68;;
20589;SDS011;10453;50.810;12.540;2023-12-20T10:54:30;5.57;;;2.33;;
20589;SDS011;10453;50.810;12.540;2023-12-20T10:59:11;7.65;;;2.80;;
20589;SDS011;10453;50.810;12.540;2023-12-20T11:03:38;5.45;;;2.00;;
20589;SDS011;10453;50.810;12.540;2023-12-20T11:08:46;7.10;;;3.55;;
20589;SDS011;10453;50.810;12.540;2023-12-20T11:13:37;4.82;;;2.45;;
20589;SDS011;10453;50.810;12.540;2023-12-20T11:18:16;5.13;;;2.65;;
20589;SDS011;10453;50.810;12.540;2023-12-20T11:28:49;6.38;;;2.25;;
20589;SDS011;10453;50.810;12.540;2023-12-20T11:34:12;8.57;;;2.35;;
20589;SDS011;10453;50.810;12.540;2023-12-20T11:39:05;4.85;;;1.85;;
20589;SDS011;10453;50.810;12.540;2023-12-20T11:43:40;7.43;;;2.60;;
20589;SDS011;10453;50.810;12.540;2023-12-20T11:48:07;4.10;;;1.88;;
20589;SDS011;10453;50.810;12.540;2023-12-20T11:53:04;8.02;;;1.92;;
20589;SDS011;10453;50.810;12.540;2023-12-20T11:57:39;4.20;;;1.20;;
20589;SDS011;10453;50.810;12.540;2023-12-20T12:02:05;2.83;;;1.33;;
20589;SDS011;10453;50.810;12.540;2023-12-20T12:06:34;5.88;;;1.70;;
20589;SDS011;10453;50.810;12.540;2023-12-20T12:10:55;5.90;;;1.60;;
20589;SDS011;10453;50.810;12.540;2023-12-20T12:15:14;3.20;;;1.10;;
20589;SDS011;10453;50.810;12.540;2023-12-20T12:23:52;4.55;;;1.45;;
20589;SDS011;10453;50.810;12.540;2023-12-20T12:28:10;3.80;;;1.60;;
20589;SDS011;10453;50.810;12.540;2023-12-20T12:32:27;2.75;;;1.27;;
20589;SDS011;10453;50.810;12.540;2023-12-20T12:36:45;3.60;;;1.37;;
20589;SDS011;10453;50.810;12.540;2023-12-20T12:41:04;7.60;;;4.20;;
20589;SDS011;10453;50.810;12.540;2023-12-20T12:45:24;3.60;;;1.33;;
20589;SDS011;10453;50.810;12.540;2023-12-20T12:49:43;4.53;;;1.40;;
20589;SDS011;10453;50.810;12.540;2023-12-20T12:54:01;2.95;;;1.58;;
20589;SDS011;10453;50.810;12.540;2023-12-20T12:58:19;3.67;;;1.58;;
20589;SDS011;10453;50.810;12.540;2023-12-20T13:02:37;5.35;;;1.60;;
20589;SDS011;10453;50.810;12.540;2023-12-20T13:06:54;5.40;;;1.88;;
20589;SDS011;10453;50.810;12.540;2023-12-20T13:11:14;23.90;;;2.53;;
20589;SDS011;10453;50.810;12.540;2023-12-20T13:15:31;2.97;;;1.38;;
20589;SDS011;10453;50.810;12.540;2023-12-20T13:19:49;6.82;;;1.42;;
20589;SDS011;10453;50.810;12.540;2023-12-20T13:24:06;4.47;;;1.42;;
20589;SDS011;10453;50.810;12.540;2023-12-20T13:28:24;3.75;;;1.73;;
20589;SDS011;10453;50.810;12.540;2023-12-20T13:32:42;4.45;;;1.40;;
20589;SDS011;10453;50.810;12.540;2023-12-20T13:37:00;4.47;;;1.50;;
20589;SDS011;10453;50.810;12.540;2023-12-20T13:41:17;8.10;;;1.58;;
20589;SDS011;10453;50.810;12.540;2023-12-20T13:49:53;4.07;;;1.80;;
20589;SDS011;10453;50.810;12.540;2023-12-20T13:54:10;2.53;;;1.37;;
20589;SDS011;10453;50.810;12.540;2023-12-20T13:58:28;6.88;;;1.30;;
20589;SDS011;10453;50.810;12.540;2023-12-20T14:02:45;4.53;;;1.50;;
20589;SDS011;10453;50.810;12.540;2023-12-20T14:07:03;4.38;;;1.30;;
20589;SDS011;10453;50.810;12.540;2023-12-20T14:11:21;5.17;;;1.70;;
20589;SDS011;10453;50.810;12.540;2023-12-20T14:15:40;5.88;;;1.83;;
20589;SDS011;10453;50.810;12.540;2023-12-20T14:19:57;4.60;;;1.52;;
20589;SDS011;10453;50.810;12.540;2023-12-20T14:24:14;5.05;;;2.35;;
20589;SDS011;10453;50.810;12.540;2023-12-20T14:28:31;10.50;;;7.97;;
20589;SDS011;10453;50.810;12.540;2023-12-20T14:32:49;10.13;;;7.97;;
20589;SDS011;10453;50.810;12.540;2023-12-20T14:37:06;7.65;;;2.90;;
20589;SDS011;10453;50.810;12.540;2023-12-20T14:41:23;4.35;;;1.67;;
20589;SDS011;10453;50.810;12.540;2023-12-20T14:45:41;6.47;;;2.27;;
20589;SDS011;10453;50.810;12.540;2023-12-20T14:50:00;4.95;;;2.13;;
20589;SDS011;10453;50.810;12.540;2023-12-20T14:54:19;9.73;;;2.10;;
20589;SDS011;10453;50.810;12.540;2023-12-20T14:58:37;3.72;;;1.50;;
20589;SDS011;10453;50.810;12.540;2023-12-20T15:02:55;5.85;;;1.77;;
20589;SDS011;10453;50.810;12.540;2023-12-20T15:07:12;5.18;;;1.80;;
20589;SDS011;10453;50.810;12.540;2023-12-20T15:11:29;3.08;;;1.85;;
20589;SDS011;10453;50.810;12.540;2023-12-20T15:15:47;5.73;;;1.77;;
20589;SDS011;10453;50.810;12.540;2023-12-20T15:20:05;4.80;;;1.63;;
20589;SDS011;10453;50.810;12.540;2023-12-20T15:24:23;3.17;;;1.33;;
20589;SDS011;10453;50.810;12.540;2023-12-20T15:28:45;3.58;;;1.70;;
20589;SDS011;10453;50.810;12.540;2023-12-20T15:33:02;4.65;;;1.50;;
20589;SDS011;10453;50.810;12.540;2023-12-20T15:37:23;3.88;;;2.15;;
20589;SDS011;10453;50.810;12.540;2023-12-20T15:41:43;3.25;;;1.83;;
20589;SDS011;10453;50.810;12.540;2023-12-20T15:46:00;4.07;;;2.10;;
20589;SDS011;10453;50.810;12.540;2023-12-20T15:50:21;6.53;;;4.10;;
20589;SDS011;10453;50.810;12.540;2023-12-20T15:54:40;3.90;;;3.30;;
20589;SDS011;10453;50.810;12.540;2023-12-20T15:58:58;6.90;;;1.55;;
20589;SDS011;10453;50.810;12.540;2023-12-20T16:03:16;3.45;;;1.58;;
20589;SDS011;10453;50.810;12.540;2023-12-20T16:07:41;6.88;;;1.83;;
20589;SDS011;10453;50.810;12.540;2023-12-20T16:12:00;4.93;;;2.28;;
20589;SDS011;10453;50.810;12.540;2023-12-20T16:16:17;7.28;;;2.80;;
20589;SDS011;10453;50.810;12.540;2023-12-20T16:20:35;9.88;;;2.20;;
20589;SDS011;10453;50.810;12.540;2023-12-20T16:24:53;5.35;;;2.00;;
20589;SDS011;10453;50.810;12.540;2023-12-20T16:29:10;6.28;;;1.55;;
20589;SDS011;10453;50.810;12.540;2023-12-20T16:33:29;5.13;;;1.63;;
20589;SDS011;10453;50.810;12.540;2023-12-20T16:37:46;6.90;;;1.80;;
20589;SDS011;10453;50.810;12.540;2023-12-20T16:42:04;20.52;;;6.35;;
20589;SDS011;10453;50.810;12.540;2023-12-20T16:46:25;11.15;;;4.32;;
20589;SDS011;10453;50.810;12.540;2023-12-20T16:50:42;6.28;;;3.83;;
20589;SDS011;10453;50.810;12.540;2023-12-20T16:55:01;5.43;;;1.98;;
20589;SDS011;10453;50.810;12.540;2023-12-20T16:59:20;6.90;;;1.80;;
20589;SDS011;10453;50.810;12.540;2023-12-20T17:03:38;4.75;;;2.00;;
20589;SDS011;10453;50.810;12.540;2023-12-20T17:07:55;7.07;;;3.30;;
20589;SDS011;10453;50.810;12.540;2023-12-20T17:12:12;6.40;;;2.35;;
20589;SDS011;10453;50.810;12.540;2023-12-20T17:16:29;8.57;;;2.70;;
20589;SDS011;10453;50.810;12.540;2023-12-20T17:25:05;7.07;;;2.65;;
20589;SDS011;10453;50.810;12.540;2023-12-20T17:29:23;8.15;;;2.55;;
20589;SDS011;10453;50.810;12.540;2023-12-20T17:33:40;7.13;;;3.20;;
20589;SDS011;10453;50.810;12.540;2023-12-20T17:37:58;2.30;;;1.77;;
20589;SDS011;10453;50.810;12.540;2023-12-20T17:42:16;5.82;;;1.83;;
20589;SDS011;10453;50.810;12.540;2023-12-20T17:46:33;3.92;;;1.63;;
20589;SDS011;10453;50.810;12.540;2023-12-20T17:50:51;4.68;;;1.52;;
20589;SDS011;10453;50.810;12.540;2023-12-20T17:55:08;3.83;;;1.33;;
20589;SDS011;10453;50.810;12.540;2023-12-20T17:59:25;3.08;;;1.23;;
20589;SDS011;10453;50.810;12.540;2023-12-20T18:03:42;2.05;;;1.20;;
20589;SDS011;10453;50.810;12.540;2023-12-20T18:08:00;2.97;;;1.15;;
20589;SDS011;10453;50.810;12.540;2023-12-20T18:12:19;4.07;;;1.25;;
20589;SDS011;10453;50.810;12.540;2023-12-20T18:16:36;2.20;;;1.00;;
20589;SDS011;10453;50.810;12.540;2023-12-20T18:20:55;5.22;;;1.38;;
20589;SDS011;10453;50.810;12.540;2023-12-20T18:25:14;2.55;;;1.35;;
20589;SDS011;10453;50.810;12.540;2023-12-20T18:29:31;2.53;;;1.70;;
20589;SDS011;10453;50.810;12.540;2023-12-20T18:33:51;3.55;;;1.80;;
20589;SDS011;10453;50.810;12.540;2023-12-20T18:38:12;2.90;;;1.40;;
20589;SDS011;10453;50.810;12.540;2023-12-20T18:42:32;3.80;;;1.40;;
20589;SDS011;10453;50.810;12.540;2023-12-20T18:46:50;3.57;;;1.73;;
20589;SDS011;10453;50.810;12.540;2023-12-20T18:51:07;1.85;;;1.38;;
20589;SDS011;10453;50.810;12.540;2023-12-20T18:55:25;2.15;;;1.70;;
20589;SDS011;10453;50.810;12.540;2023-12-20T18:59:42;2.13;;;1.30;;
20589;SDS011;10453;50.810;12.540;2023-12-20T19:04:00;1.50;;;1.10;;
20589;SDS011;10453;50.810;12.540;2023-12-20T19:08:18;1.92;;;1.48;;
20589;SDS011;10453;50.810;12.540;2023-12-20T19:12:39;3.33;;;1.50;;
20589;SDS011;10453;50.810;12.540;2023-12-20T19:16:56;2.47;;;1.50;;
20589;SDS011;10453;50.810;12.540;2023-12-20T19:21:18;3.65;;;1.60;;
20589;SDS011;10453;50.810;12.540;2023-12-20T19:25:35;1.33;;;1.20;;
20589;SDS011;10453;50.810;12.540;2023-12-20T19:29:52;2.40;;;1.50;;
20589;SDS011;10453;50.810;12.540;2023-12-20T19:34:14;3.72;;;1.45;;
20589;SDS011;10453;50.810;12.540;2023-12-20T19:38:31;4.20;;;1.25;;
20589;SDS011;10453;50.810;12.540;2023-12-20T19:42:52;3.50;;;1.27;;
20589;SDS011;10453;50.810;12.540;2023-12-20T19:47:09;1.70;;;1.30;;
20589;SDS011;10453;50.810;12.540;2023-12-20T19:51:27;1.60;;;1.40;;
20589;SDS011;10453;50.810;12.540;2023-12-20T19:55:44;1.70;;;1.33;;
20589;SDS011;10453;50.810;12.540;2023-12-20T20:00:03;3.45;;;1.30;;
20589;SDS011;10453;50.810;12.540;2023-12-20T20:04:21;1.40;;;1.00;;
20589;SDS011;10453;50.810;12.540;2023-12-20T20:08:40;1.42;;;1.20;;
20589;SDS011;10453;50.810;12.540;2023-12-20T20:17:16;2.80;;;1.30;;
20589;SDS011;10453;50.810;12.540;2023-12-20T20:21:33;1.58;;;1.17;;
20589;SDS011;10453;50.810;12.540;2023-12-20T20:25:50;1.35;;;1.10;;
20589;SDS011;10453;50.810;12.540;2023-12-20T20:30:08;1.85;;;1.10;;
20589;SDS011;10453;50.810;12.540;2023-12-20T20:34:26;1.48;;;1.10;;
20589;SDS011;10453;50.810;12.540;2023-12-20T20:38:44;1.00;;;0.80;;
20589;SDS011;10453;50.810;12.540;2023-12-20T20:43:03;0.88;;;0.80;;
20589;SDS011;10453;50.810;12.540;2023-12-20T20:47:21;1.20;;;0.85;;
20589;SDS011;10453;50.810;12.540;2023-12-20T20:51:38;1.63;;;0.88;;
20589;SDS011;10453;50.810;12.540;2023-12-20T20:55:56;1.60;;;0.88;;
20589;SDS011;10453;50.810;12.540;2023-12-20T21:00:16;1.90;;;1.00;;
20589;SDS011;10453;50.810;12.540;2023-12-20T21:04:36;8.30;;;0.98;;
20589;SDS011;10453;50.810;12.540;2023-12-20T21:08:54;3.23;;;0.90;;
20589;SDS011;10453;50.810;12.540;2023-12-20T21:13:12;2.35;;;1.00;;
20589;SDS011;10453;50.810;12.540;2023-12-20T21:17:31;1.17;;;1.00;;
20589;SDS011;10453;50.810;12.540;2023-12-20T21:21:49;1.75;;;0.93;;
20589;SDS011;10453;50.810;12.540;2023-12-20T21:26:07;3.33;;;0.88;;
20589;SDS011;10453;50.810;12.540;2023-12-20T21:30:28;1.60;;;0.90;;
20589;SDS011;10453;50.810;12.540;2023-12-20T21:34:50;1.50;;;0.93;;
20589;SDS011;10453;50.810;12.540;2023-12-20T21:39:08;1.30;;;0.80;;
20589;SDS011;10453;50.810;12.540;2023-12-20T21:43:27;1.10;;;0.93;;
20589;SDS011;10453;50.810;12.540;2023-12-20T21:47:44;0.90;;;0.80;;
20589;SDS011;10453;50.810;12.540;2023-12-20T21:56:20;1.02;;;0.80;;
20589;SDS011;10453;50.810;12.540;2023-12-20T22:00:37;1.10;;;0.70;;
20589;SDS011;10453;50.810;12.540;2023-12-20T22:04:55;1.30;;;0.80;;
20589;SDS011;10453;50.810;12.540;2023-12-20T22:09:12;1.30;;;0.88;;
20589;SDS011;10453;50.810;12.540;2023-12-20T22:13:29;1.00;;;0.90;;
20589;SDS011;10453;50.810;12.540;2023-12-20T22:17:48;1.35;;;1.00;;
20589;SDS011;10453;50.810;12.540;2023-12-20T22:22:07;1.70;;;0.90;;
20589;SDS011;10453;50.810;12.540;2023-12-20T22:26:25;3.00;;;1.30;;
20589;SDS011;10453;50.810;12.540;2023-12-20T22:30:43;3.33;;;1.20;;
20589;SDS011;10453;50.810;12.540;2023-12-20T22:35:01;3.28;;;1.40;;
20589;SDS011;10453;50.810;12.540;2023-12-20T22:39:20;2.35;;;1.63;;
20589;SDS011;10453;50.810;12.540;2023-12-20T22:43:39;1.50;;;1.25;;
20589;SDS011;10453;50.810;12.540;2023-12-20T22:47:58;4.63;;;1.70;;
20589;SDS011;10453;50.810;12.540;2023-12-20T22:52:16;2.13;;;1.45;;
20589;SDS011;10453;50.810;12.540;2023-12-20T22:56:33;2.03;;;1.40;;
20589;SDS011;10453;50.810;12.540;2023-12-20T23:00:50;3.15;;;1.50;;
20589;SDS011;10453;50.810;12.540;2023-12-20T23:05:08;3.42;;;1.17;;
20589;SDS011;10453;50.810;12.540;2023-12-20T23:09:25;4.05;;;1.25;;
20589;SDS011;10453;50.810;12.540;2023-12-20T23:13:42;4.05;;;1.13;;
20589;SDS011;10453;50.810;12.540;2023-12-20T23:18:00;2.58;;;1.42;;
20589;SDS011;10453;50.810;12.540;2023-12-20T23:22:17;2.40;;;1.50;;
20589;SDS011;10453;50.810;12.540;2023-12-20T23:26:35;2.92;;;1.25;;
20589;SDS011;10453;50.810;12.540;2023-12-20T23:30:54;1.70;;;1.10;;
20589;SDS011;10453;50.810;12.540;2023-12-20T23:35:11;1.90;;;1.30;;
20589;SDS011;10453;50.810;12.540;2023-12-20T23:39:32;1.30;;;1.00;;
20589;SDS011;10453;50.810;12.540;2023-12-20T23:43:49;1.40;;;0.93;;
20589;SDS011;10453;50.810;12.540;2023-12-20T23:48:07;2.45;;;0.90;;
20589;SDS011;10453;50.810;12.540;2023-12-20T23:52:24;0.77;;;0.77;;
20589;SDS011;10453;50.810;12.540;2023-12-20T23:56:41;1.42;;;0.70;;
